Wilmington, OH

2:04 PM EST on February 08, 2016 (GMT -0500)
2.2 N Wilmington | | Change Station
CLOSE
Current Station
Personal Weather Station
Location: Wilmington, OH
Elevation: 1053 ft
Nearby Weather Stations
Active Advisory: Winter Weather Advisory Active Notice: Local Storm Report

Elev 1053 ft 39.47 °N, 83.84 °W | Updated 6 minutes ago

Overcast
Overcast
34.8 °F
Feels Like 30 °F
N
6.0
Wind Variable Wind from WSW
Gusts 9.0 mph

Today
High -- | Low -- °F
--% Chance of Precip.
Yesterday
High -- | Low -- °F
Precip. -- in
Pressure 29.59 in
Visibility 6.0 miles
Clouds Mostly Cloudy 700 ft
Overcast 1200 ft
Windchill 30 °F
Dew Point 33 °F
Humidity 94%
Rainfall 0.16 in
Snow Depth Not available.
7:36 AM 6:03 PM
New Moon, 0% visible
SPECI KILN 081901Z AUTO 26007KT 6SM BR BKN007 OVC012 01/00 A2959 RMK AO2 CIG 004V011 T00110000
Pressure 29.59 in
Visibility 6.0 miles
Clouds Mostly Cloudy 700 ft
Overcast 1200 ft
Windchill 30 °F
Dew Point 33 °F
Humidity 94%
Rainfall 0.16 in
Snow Depth Not available.
7:36 AM 6:03 PM
New Moon, 0% visible
SPECI KILN 081901Z AUTO 26007KT 6SM BR BKN007 OVC012 01/00 A2959 RMK AO2 CIG 004V011 T00110000

10-Day Weather Forecast

Almanac

Astronomy

Feb. 08, 2016 Rise Set
Actual Time
Civil Twilight
Nautical Twilight
Astronomical Twilight
Moon
Length of Visible Light
Length of Day
Tomorrow will be .
, % of the Moon is Illuminated

Today's Extremes

State Highs State Lows

Community

WunderPhotos

Upload Photos

1,891,485 photos uploaded!

WunderBlog® & News

Nearby

Air Quality

  Air Quality AQ Index Pollutant
Not available.

Snow Depth

Station Depth Elevation

Earthquake Activity

City Distance Mag. Time & Date
Minimum magnitude displayed is 2.5.

Coastal Water Temperatures

Place Temperature

Stations

Nearby Weather Stations

Station Location Temp. Windchill Dew Point Humidity Wind Precip. Elev Updated Type
                   

Watches & Warnings

Winter Weather Advisory
Issued: 11:48 AM EST Feb. 8, 2016 – National Weather Service

... Winter Weather Advisory remains in effect from 6 PM this
evening to 6 am EST Wednesday...

* hazard types... snow showers.

* Accumulations... snow accumulation of 2 to 4 inches.

* Timing... rain and snow showers will transition over to all snow
showers this evening. Occasional snow showers will then continue
tonight through Tuesday night.

* Impacts... travel difficulties are expected due to reduced
visibilities and snow accumulations.

Precautionary/preparedness actions...

Remember... a Winter Weather Advisory for snow means that periods
of snow will cause primarily travel difficulties. Be prepared for
snow covered roads and limited visibilities... and use caution
while driving. Stay tuned to NOAA Weather Radio or your favorite
source of information for the latest updates. Additional details
can also be found at www.Weather.Gov/iln as well as on our
facebook and twitter pages.